Time;durP1;ratioP1;P1;durP2;ratioP2;P2;SDS_P1;SDS_P2;PMS_P1;PMS_P2;Temp;Humidity;BMP_temperature;BMP_pressure;BME280_temperature;BME280_humidity;BME280_pressure;Samples;Min_cycle;Max_cycle;Signal;HPM_P1;HPM_P2
2023/02/24 00:02:13;;;;;;;12.20;1.83;;;3.10;91.60;;;;;;5036483;28;20030;-76
2023/02/24 00:04:39;;;;;;;11.73;1.60;;;3.10;91.40;;;;;;5046819;28;20029;-76
2023/02/24 00:07:06;;;;;;;6.82;1.50;;;3.10;91.10;;;;;;5046386;28;20021;-76
2023/02/24 00:09:32;;;;;;;11.38;1.83;;;3.10;91.20;;;;;;5041868;28;20041;-76
2023/02/24 00:11:59;;;;;;;11.00;1.35;;;3.20;91.20;;;;;;5042952;28;20037;-76
2023/02/24 00:14:29;;;;;;;10.85;1.63;;;3.10;91.20;;;;;;5055873;28;20415;-76
2023/02/24 00:16:57;;;;;;;8.02;1.50;;;3.10;91.70;;;;;;5044211;28;20026;-76
2023/02/24 00:19:24;;;;;;;8.10;1.63;;;3.10;92.60;;;;;;5039275;28;20036;-76
2023/02/24 00:21:53;;;;;;;10.65;1.75;;;3.00;93.10;;;;;;5040936;28;20051;-76
2023/02/24 00:24:19;;;;;;;9.00;1.50;;;3.00;93.40;;;;;;5043334;28;20037;-76
2023/02/24 00:26:47;;;;;;;7.60;1.50;;;2.90;93.30;;;;;;5039635;28;20040;-76
2023/02/24 00:29:12;;;;;;;12.32;1.77;;;2.90;93.40;;;;;;5042080;28;20046;-76
2023/02/24 00:31:40;;;;;;;11.93;1.63;;;2.80;93.70;;;;;;5034461;28;20097;-76
2023/02/24 00:34:07;;;;;;;8.55;1.92;;;2.90;94.00;;;;;;5055240;28;20032;-76
2023/02/24 00:36:32;;;;;;;11.50;2.08;;;2.90;94.10;;;;;;5055791;28;20025;-76
2023/02/24 00:39:10;;;;;;;18.75;1.88;;;2.90;94.10;;;;;;5061654;28;20048;-76
2023/02/24 00:41:39;;;;;;;9.45;1.80;;;2.90;94.10;;;;;;5054948;28;20059;-76
2023/02/24 00:44:08;;;;;;;10.95;1.83;;;2.80;93.70;;;;;;5046928;28;20033;-76
2023/02/24 00:46:37;;;;;;;11.38;1.33;;;2.90;93.50;;;;;;5040254;28;20026;-76
2023/02/24 00:49:05;;;;;;;8.43;1.58;;;2.90;93.60;;;;;;5042695;28;20025;-76
2023/02/24 00:51:38;;;;;;;8.90;1.88;;;2.90;93.70;;;;;;5053472;28;20072;-76
2023/02/24 00:54:04;;;;;;;9.05;1.88;;;2.90;93.60;;;;;;5042941;28;20036;-76
2023/02/24 00:56:30;;;;;;;11.27;1.23;;;2.90;93.70;;;;;;5033252;28;20044;-76
2023/02/24 00:58:57;;;;;;;10.05;1.65;;;2.90;93.70;;;;;;5052344;28;20068;-76
2023/02/24 01:01:30;;;;;;;4.93;1.40;;;2.90;93.70;;;;;;5042630;28;20040;-76
2023/02/24 01:03:55;;;;;;;10.00;1.60;;;2.80;93.70;;;;;;5045391;28;20032;-76
2023/02/24 01:06:25;;;;;;;9.05;1.52;;;2.80;93.20;;;;;;5038697;28;20030;-76
2023/02/24 01:08:52;;;;;;;10.07;1.80;;;2.90;92.50;;;;;;5042900;28;20021;-76
2023/02/24 01:14:15;;;;;;;9.10;1.27;;;2.90;92.10;;;;;;5032898;28;20044;-76
2023/02/24 01:16:49;;;;;;;7.57;1.70;;;2.90;92.60;;;;;;5060113;28;20025;-76
2023/02/24 01:19:19;;;;;;;9.63;1.30;;;2.80;92.20;;;;;;5035416;28;20029;-76
2023/02/24 01:21:45;;;;;;;9.60;1.30;;;2.90;92.30;;;;;;5053762;28;20029;-76
2023/02/24 01:24:10;;;;;;;12.30;1.48;;;2.90;92.00;;;;;;5054968;28;20032;-76
2023/02/24 01:26:36;;;;;;;7.60;1.27;;;2.80;92.10;;;;;;5048894;28;20029;-76
2023/02/24 01:29:08;;;;;;;5.25;1.05;;;2.90;91.90;;;;;;5050726;28;20057;-76
2023/02/24 01:31:37;;;;;;;6.55;1.33;;;2.80;91.60;;;;;;5053704;28;20033;-76
2023/02/24 01:34:04;;;;;;;8.15;1.30;;;2.90;91.20;;;;;;5040907;28;20500;-76
2023/02/24 01:36:31;;;;;;;15.43;2.30;;;2.90;90.50;;;;;;5042202;28;20029;-76
2023/02/24 01:38:59;;;;;;;8.98;1.15;;;2.90;90.10;;;;;;5041168;28;20026;-76
2023/02/24 01:41:29;;;;;;;6.05;1.27;;;2.90;89.80;;;;;;5039237;28;20034;-76
2023/02/24 01:44:28;;;;;;;9.02;1.13;;;2.90;89.20;;;;;;5041933;28;20021;-76
2023/02/24 01:46:54;;;;;;;7.45;1.25;;;3.00;89.20;;;;;;5049918;28;20078;-76
2023/02/24 01:49:33;;;;;;;8.82;1.20;;;3.00;89.20;;;;;;5037353;28;20041;-76
2023/02/24 01:52:06;;;;;;;9.77;1.73;;;3.00;89.00;;;;;;5045028;28;20486;-76
2023/02/24 01:54:40;;;;;;;6.30;1.63;;;2.90;89.10;;;;;;5052311;28;20115;-76
2023/02/24 01:57:07;;;;;;;13.23;1.63;;;2.90;89.30;;;;;;5042575;28;20033;-76
2023/02/24 01:59:36;;;;;;;7.82;1.40;;;3.00;89.00;;;;;;5044693;28;20031;-76
2023/02/24 02:02:06;;;;;;;11.10;1.73;;;3.00;88.10;;;;;;5037438;28;20584;-76
2023/02/24 02:04:46;;;;;;;6.77;1.00;;;3.00;88.20;;;;;;5041073;28;20041;-76
2023/02/24 02:07:16;;;;;;;9.52;1.33;;;3.00;87.80;;;;;;5040446;28;20044;-76
2023/02/24 02:09:42;;;;;;;8.63;1.55;;;3.00;88.30;;;;;;5041986;28;20042;-76
2023/02/24 02:12:09;;;;;;;7.07;1.58;;;3.00;87.80;;;;;;5037902;28;20548;-76
2023/02/24 02:14:38;;;;;;;8.55;1.60;;;3.00;87.80;;;;;;5042982;28;20029;-76
2023/02/24 02:17:09;;;;;;;8.18;1.23;;;3.00;87.30;;;;;;5051182;28;20041;-76
2023/02/24 02:20:14;;;;;;;10.95;1.85;;;3.00;87.80;;;;;;5046169;28;20021;-76
2023/02/24 02:22:50;;;;;;;6.32;1.30;;;3.00;87.90;;;;;;5053758;28;20037;-76
2023/02/24 02:25:45;;;;;;;9.85;1.23;;;3.00;87.70;;;;;;5039590;28;20091;-76
2023/02/24 02:28:35;;;;;;;8.02;1.15;;;2.90;88.30;;;;;;5048137;28;20108;-76
2023/02/24 02:31:39;;;;;;;6.43;0.95;;;2.90;88.20;;;;;;5037495;28;20044;-76
2023/02/24 02:34:39;;;;;;;4.65;1.20;;;2.90;87.90;;;;;;5040571;28;20056;-76
2023/02/24 02:37:23;;;;;;;6.03;1.15;;;3.00;86.80;;;;;;5046618;28;20017;-76
2023/02/24 02:39:57;;;;;;;5.75;1.33;;;2.90;87.20;;;;;;5040591;28;20037;-76
2023/02/24 02:42:37;;;;;;;5.93;1.02;;;2.90;86.70;;;;;;5038021;28;20037;-76
2023/02/24 02:45:04;;;;;;;7.72;1.40;;;2.90;86.70;;;;;;5043411;28;20377;-76
2023/02/24 02:47:42;;;;;;;11.10;1.23;;;2.90;87.10;;;;;;5043487;28;20033;-76
2023/02/24 02:50:21;;;;;;;6.53;1.27;;;3.00;86.50;;;;;;5040507;28;20060;-76
2023/02/24 02:52:56;;;;;;;8.65;1.20;;;2.90;86.80;;;;;;5046383;28;20029;-76
2023/02/24 02:55:39;;;;;;;8.65;0.85;;;2.90;87.10;;;;;;5039999;28;20184;-76
2023/02/24 02:58:10;;;;;;;7.78;1.30;;;2.90;86.90;;;;;;5055602;28;20021;-76
2023/02/24 03:00:57;;;;;;;6.10;1.27;;;2.90;86.70;;;;;;5044849;28;20033;-76
2023/02/24 03:03:26;;;;;;;6.30;1.27;;;2.90;86.50;;;;;;5021616;28;20034;-76
2023/02/24 03:05:57;;;;;;;5.20;0.90;;;2.90;86.10;;;;;;5041067;28;20442;-76
2023/02/24 03:08:28;;;;;;;6.03;1.08;;;2.90;86.80;;;;;;5026725;28;20427;-76
2023/02/24 03:10:59;;;;;;;8.43;1.30;;;2.90;86.70;;;;;;5037479;28;20045;-76
2023/02/24 03:13:29;;;;;;;7.72;1.10;;;2.90;87.10;;;;;;5049995;28;20029;-76
2023/02/24 03:15:58;;;;;;;4.43;0.82;;;2.90;87.30;;;;;;5046923;28;20112;-76
2023/02/24 03:18:30;;;;;;;4.95;0.85;;;2.90;86.80;;;;;;5051256;28;20033;-76
2023/02/24 03:21:23;;;;;;;12.85;1.35;;;2.90;86.50;;;;;;5035948;28;20040;-76
2023/02/24 03:23:49;;;;;;;3.80;0.95;;;2.90;86.70;;;;;;5045570;28;20046;-76
2023/02/24 03:26:24;;;;;;;4.18;1.00;;;2.90;86.40;;;;;;5040165;28;20052;-76
2023/02/24 03:28:52;;;;;;;5.72;1.13;;;3.00;86.20;;;;;;5035889;28;20053;-76
2023/02/24 03:31:26;;;;;;;3.67;1.10;;;2.90;86.70;;;;;;5034305;28;20092;-76
2023/02/24 03:34:04;;;;;;;6.35;1.13;;;2.90;86.60;;;;;;5044399;28;20037;-76
2023/02/24 03:36:31;;;;;;;4.25;1.10;;;3.00;86.80;;;;;;5043201;28;20040;-76
2023/02/24 03:39:00;;;;;;;7.60;1.10;;;2.90;86.80;;;;;;5034931;28;20028;-76
2023/02/24 03:41:31;;;;;;;6.88;1.30;;;2.90;87.00;;;;;;5037222;28;20029;-76
2023/02/24 03:43:58;;;;;;;10.93;2.05;;;2.90;86.60;;;;;;5040164;28;20075;-76
2023/02/24 03:46:24;;;;;;;5.30;1.30;;;2.90;86.80;;;;;;5039017;28;20037;-76
2023/02/24 03:49:01;;;;;;;6.30;1.05;;;3.00;86.80;;;;;;5037012;28;20061;-76
2023/02/24 03:51:27;;;;;;;6.07;0.98;;;2.90;87.40;;;;;;5039319;28;20029;-76
2023/02/24 03:54:17;;;;;;;5.45;1.25;;;2.90;87.90;;;;;;5036221;28;20040;-76
2023/02/24 03:57:12;;;;;;;11.50;1.52;;;2.90;87.80;;;;;;5026638;28;20183;-76
2023/02/24 04:00:43;;;;;;;8.02;1.50;;;2.90;87.40;;;;;;5046895;28;20044;-76
2023/02/24 04:03:24;;;;;;;7.97;1.52;;;3.00;87.70;;;;;;5023868;28;20045;-76
2023/02/24 04:06:27;;;;;;;13.05;1.70;;;2.90;87.60;;;;;;5047767;28;20120;-76
2023/02/24 04:09:20;;;;;;;6.63;1.33;;;2.90;87.80;;;;;;5028531;28;20033;-76
2023/02/24 04:12:08;;;;;;;6.40;1.40;;;3.00;87.50;;;;;;5022367;28;20129;-76
2023/02/24 04:14:47;;;;;;;4.85;1.23;;;3.00;88.10;;;;;;5034314;28;20053;-76
2023/02/24 04:17:29;;;;;;;9.88;1.10;;;3.00;88.20;;;;;;5028698;28;20057;-76
2023/02/24 04:19:59;;;;;;;9.55;1.83;;;2.90;88.30;;;;;;5043898;28;20034;-76
2023/02/24 04:22:26;;;;;;;9.45;1.35;;;3.00;88.40;;;;;;5032307;28;20040;-76
2023/02/24 04:24:57;;;;;;;6.35;1.08;;;3.00;88.20;;;;;;5031521;28;20037;-76
2023/02/24 04:27:27;;;;;;;10.20;1.75;;;3.00;88.40;;;;;;5026806;28;20021;-76
2023/02/24 04:29:58;;;;;;;7.97;1.40;;;2.90;89.00;;;;;;5035486;28;20493;-76
2023/02/24 04:32:27;;;;;;;5.85;1.48;;;2.90;89.50;;;;;;5045067;28;20036;-76
2023/02/24 04:34:59;;;;;;;3.17;0.98;;;2.80;89.80;;;;;;5042370;28;20119;-76
2023/02/24 04:37:25;;;;;;;6.00;1.30;;;2.80;89.90;;;;;;5035266;28;20033;-76
2023/02/24 04:39:50;;;;;;;9.30;1.48;;;2.80;89.70;;;;;;5033276;28;20041;-76
2023/02/24 04:42:18;;;;;;;8.68;1.33;;;2.80;89.90;;;;;;5012081;28;20047;-76
2023/02/24 04:44:45;;;;;;;4.88;1.15;;;2.80;89.90;;;;;;5037470;28;20048;-76
2023/02/24 04:47:11;;;;;;;4.68;1.40;;;2.80;89.90;;;;;;5044605;28;20043;-76
2023/02/24 04:49:39;;;;;;;8.63;1.60;;;2.80;90.20;;;;;;5052039;28;20148;-76
2023/02/24 04:52:07;;;;;;;7.82;1.80;;;2.70;90.40;;;;;;5045517;28;20029;-76
2023/02/24 04:54:33;;;;;;;9.93;2.03;;;2.80;90.10;;;;;;5049058;28;20025;-76
2023/02/24 04:56:59;;;;;;;4.13;1.20;;;2.80;89.90;;;;;;5040779;28;20028;-76
2023/02/24 04:59:25;;;;;;;3.58;1.30;;;2.80;90.00;;;;;;5035325;28;20025;-76
2023/02/24 05:01:51;;;;;;;8.20;1.40;;;2.70;90.40;;;;;;5047183;28;20078;-76
2023/02/24 05:04:17;;;;;;;9.98;1.67;;;2.80;90.10;;;;;;5049352;28;20047;-76
2023/02/24 05:06:43;;;;;;;10.70;1.60;;;2.80;90.10;;;;;;5031577;28;20026;-76
2023/02/24 05:09:17;;;;;;;7.85;1.85;;;2.80;90.40;;;;;;5038633;28;20092;-76
2023/02/24 05:11:45;;;;;;;7.78;1.55;;;2.80;89.90;;;;;;5034109;28;20041;-76
2023/02/24 05:14:15;;;;;;;6.90;1.60;;;2.90;89.70;;;;;;5044953;28;20037;-76
2023/02/24 05:16:42;;;;;;;6.75;1.60;;;2.80;90.20;;;;;;5050983;28;20025;-76
2023/02/24 05:21:57;;;;;;;5.47;1.20;;;2.80;90.30;;;;;;5045086;28;20040;-76
2023/02/24 05:24:28;;;;;;;7.93;1.67;;;2.90;89.60;;;;;;5047436;28;20037;-76
2023/02/24 05:26:57;;;;;;;8.40;1.38;;;2.80;90.10;;;;;;5047735;28;20039;-76
2023/02/24 05:29:27;;;;;;;7.75;1.25;;;2.80;89.90;;;;;;5037925;28;20049;-72
2023/02/24 05:31:54;;;;;;;4.07;1.13;;;2.80;89.90;;;;;;5026101;28;20083;-75
2023/02/24 05:34:19;;;;;;;6.55;1.45;;;2.80;90.00;;;;;;5025150;28;20099;-75
2023/02/24 05:36:45;;;;;;;5.50;1.45;;;2.80;89.80;;;;;;5030254;28;20470;-75
2023/02/24 05:39:17;;;;;;;7.07;1.65;;;2.80;90.00;;;;;;5035403;28;20119;-75
2023/02/24 05:41:44;;;;;;;10.40;1.40;;;2.90;89.90;;;;;;5028202;28;20033;-75
2023/02/24 05:44:14;;;;;;;7.47;1.38;;;2.80;90.20;;;;;;5029302;28;20029;-75
2023/02/24 05:46:43;;;;;;;4.55;1.20;;;2.80;90.50;;;;;;5039239;28;20021;-75
2023/02/24 05:49:15;;;;;;;4.55;1.00;;;2.80;90.60;;;;;;5026709;28;21681;-75
2023/02/24 05:51:53;;;;;;;11.15;1.52;;;2.80;90.70;;;;;;5031826;28;20068;-75
2023/02/24 05:54:19;;;;;;;3.22;1.05;;;2.80;90.90;;;;;;5033764;28;20402;-75
2023/02/24 05:56:44;;;;;;;3.15;1.17;;;2.80;90.90;;;;;;5040680;28;20791;-75
2023/02/24 05:59:12;;;;;;;6.80;1.33;;;2.80;91.00;;;;;;5032168;28;20040;-75
2023/02/24 06:01:45;;;;;;;7.00;1.50;;;2.70;91.10;;;;;;5020956;28;20057;-75
2023/02/24 06:04:19;;;;;;;6.50;1.27;;;2.80;91.10;;;;;;5032961;28;20732;-75
2023/02/24 06:06:51;;;;;;;5.50;1.38;;;2.80;90.90;;;;;;5030376;28;20075;-76
2023/02/24 06:09:18;;;;;;;7.90;1.60;;;2.80;91.20;;;;;;5032156;28;20374;-75
2023/02/24 06:11:47;;;;;;;8.85;1.25;;;2.80;91.00;;;;;;5038304;28;20476;-75
2023/02/24 06:14:12;;;;;;;5.97;1.52;;;2.80;90.80;;;;;;5023803;28;20030;-75
2023/02/24 06:16:40;;;;;;;6.85;1.50;;;2.80;90.80;;;;;;5028996;28;20152;-75
2023/02/24 06:19:08;;;;;;;9.07;1.23;;;2.80;90.80;;;;;;5036571;28;20021;-75
2023/02/24 06:21:35;;;;;;;3.35;1.05;;;2.80;90.70;;;;;;5031259;28;20508;-74
2023/02/24 06:24:00;;;;;;;8.88;2.05;;;2.80;90.80;;;;;;5030873;28;20026;-74
2023/02/24 06:26:32;;;;;;;10.23;2.05;;;2.80;90.70;;;;;;5024565;28;20087;-74
2023/02/24 06:28:58;;;;;;;8.93;1.80;;;2.80;91.00;;;;;;5037806;28;20049;-75
2023/02/24 06:31:25;;;;;;;8.32;1.42;;;2.80;91.10;;;;;;5036987;28;20474;-74
2023/02/24 06:33:52;;;;;;;4.57;1.08;;;2.80;90.90;;;;;;5036913;28;20116;-73
2023/02/24 06:36:19;;;;;;;9.25;1.45;;;2.80;91.30;;;;;;5018280;28;20033;-73
2023/02/24 06:38:45;;;;;;;9.40;1.35;;;2.80;91.40;;;;;;5035118;28;20044;-73
2023/02/24 06:41:11;;;;;;;10.55;2.28;;;2.80;91.30;;;;;;5039103;28;20446;-74
2023/02/24 06:43:42;;;;;;;6.55;1.45;;;2.80;91.90;;;;;;5024135;28;20512;-74
2023/02/24 06:46:08;;;;;;;;;;;2.80;91.90;;;;;;5029313;28;20080;-74
2023/02/24 06:48:34;;;;;;;9.77;2.03;;;2.70;92.50;;;;;;5015827;28;19940;-73
2023/02/24 06:51:17;;;;;;;4.75;1.55;;;2.70;93.10;;;;;;5031948;28;20068;-74
2023/02/24 06:53:43;;;;;;;7.53;1.65;;;2.60;93.70;;;;;;5032692;28;20446;-73
2023/02/24 06:56:13;;;;;;;7.90;1.35;;;2.60;93.90;;;;;;5042724;28;20021;-74
2023/02/24 06:58:42;;;;;;;3.22;1.10;;;2.50;94.70;;;;;;5036438;28;20057;-74
2023/02/24 07:01:10;;;;;;;6.53;1.45;;;2.40;95.20;;;;;;5036919;28;20029;-74
2023/02/24 07:03:39;;;;;;;5.97;1.63;;;2.30;95.50;;;;;;5043578;28;20033;-74
2023/02/24 07:06:22;;;;;;;6.95;1.95;;;2.30;96.10;;;;;;5029093;28;20438;-74
2023/02/24 07:08:49;;;;;;;5.72;1.83;;;2.20;96.30;;;;;;5021844;28;20044;-74
2023/02/24 07:11:18;;;;;;;7.57;1.80;;;2.20;96.70;;;;;;5032021;28;20117;-74
2023/02/24 07:13:48;;;;;;;10.30;2.35;;;2.10;96.90;;;;;;5043789;28;20065;-74
2023/02/24 07:16:16;;;;;;;8.30;2.67;;;2.20;97.30;;;;;;5047027;28;20057;-74
2023/02/24 07:18:44;;;;;;;5.78;2.08;;;2.10;97.30;;;;;;5046754;28;20362;-74
2023/02/24 07:21:10;;;;;;;12.18;2.80;;;2.10;97.40;;;;;;5036305;28;20034;-74
2023/02/24 07:23:40;;;;;;;7.10;2.65;;;2.00;97.50;;;;;;5041682;28;20064;-74
2023/02/24 07:26:09;;;;;;;11.93;2.95;;;2.00;97.80;;;;;;5028967;28;20474;-74
2023/02/24 07:28:34;;;;;;;8.23;2.65;;;2.00;98.00;;;;;;5040552;28;20053;-74
2023/02/24 07:31:07;;;;;;;6.70;2.40;;;1.90;98.10;;;;;;5034657;28;20033;-74
2023/02/24 07:33:33;;;;;;;6.95;2.30;;;1.90;98.20;;;;;;5030525;28;20029;-74
2023/02/24 07:35:58;;;;;;;9.57;2.58;;;1.90;98.30;;;;;;5041966;28;20036;-74
2023/02/24 07:38:24;;;;;;;12.05;2.83;;;1.90;98.40;;;;;;5032666;28;20033;-74
2023/02/24 07:40:50;;;;;;;6.35;2.88;;;1.90;98.40;;;;;;5040972;28;20071;-74
2023/02/24 07:43:15;;;;;;;10.73;2.47;;;1.80;98.40;;;;;;5030461;28;20056;-74
2023/02/24 07:45:41;;;;;;;9.60;3.20;;;1.80;98.50;;;;;;5046097;28;20113;-74
2023/02/24 07:48:06;;;;;;;8.30;2.42;;;1.80;98.50;;;;;;5038306;28;20083;-74
2023/02/24 07:50:33;;;;;;;9.23;2.75;;;1.80;98.60;;;;;;5040318;28;20037;-74
2023/02/24 07:52:58;;;;;;;6.47;2.63;;;1.80;98.60;;;;;;5034924;28;20029;-75
2023/02/24 07:55:29;;;;;;;8.10;3.25;;;1.90;98.70;;;;;;5031778;28;20025;-74
2023/02/24 07:57:55;;;;;;;6.57;2.67;;;1.80;98.80;;;;;;5026906;28;20032;-74
2023/02/24 08:00:26;;;;;;;7.88;2.75;;;1.90;98.80;;;;;;5027783;28;20032;-74
2023/02/24 08:02:54;;;;;;;11.15;3.40;;;1.90;98.80;;;;;;5036697;28;20087;-74
2023/02/24 08:05:21;;;;;;;11.95;3.53;;;1.90;98.80;;;;;;5036887;28;20061;-74
2023/02/24 08:07:50;;;;;;;5.85;2.72;;;1.90;98.80;;;;;;5040754;28;20028;-74
2023/02/24 08:10:25;;;;;;;8.77;2.55;;;1.80;98.90;;;;;;5021360;28;20036;-74
2023/02/24 08:12:53;;;;;;;6.95;2.67;;;1.90;98.80;;;;;;5026734;28;20033;-74
2023/02/24 08:15:22;;;;;;;9.45;2.25;;;1.90;98.90;;;;;;5041624;28;20041;-74
2023/02/24 08:17:48;;;;;;;7.55;2.72;;;1.90;98.90;;;;;;5044088;28;20091;-74
2023/02/24 08:22:45;;;;;;;11.15;2.35;;;1.80;98.80;;;;;;5030844;28;20038;-74
2023/02/24 08:25:17;;;;;;;8.48;2.28;;;1.80;98.90;;;;;;5029646;28;20030;-74
2023/02/24 08:27:44;;;;;;;6.97;2.33;;;1.80;99.00;;;;;;5037991;28;20040;-74
2023/02/24 08:30:22;;;;;;;9.35;2.40;;;1.80;99.10;;;;;;5036581;28;20060;-74
2023/02/24 08:32:55;;;;;;;9.80;2.72;;;1.70;99.10;;;;;;5038935;28;20104;-74
2023/02/24 08:35:30;;;;;;;10.88;3.25;;;1.60;99.00;;;;;;5041325;28;20021;-74
2023/02/24 08:38:00;;;;;;;8.88;3.30;;;1.70;99.20;;;;;;5038196;28;20360;-74
2023/02/24 08:43:29;;;;;;;12.23;5.03;;;1.60;99.30;;;;;;5029200;28;20153;-74
2023/02/24 08:46:12;;;;;;;12.52;4.63;;;1.50;99.30;;;;;;5039641;28;20037;-74
2023/02/24 08:48:41;;;;;;;10.55;5.38;;;1.60;99.50;;;;;;5040917;28;20036;-74
2023/02/24 08:51:10;;;;;;;10.73;6.30;;;1.60;99.50;;;;;;5043827;28;20119;-74
2023/02/24 08:53:39;;;;;;;9.02;6.10;;;1.60;99.50;;;;;;5045970;28;20037;-74
2023/02/24 08:56:10;;;;;;;9.70;5.80;;;1.60;99.50;;;;;;5030158;28;20417;-74
2023/02/24 08:58:39;;;;;;;;;;;1.50;99.40;;;;;;5042146;28;20545;-74
2023/02/24 09:01:17;;;;;;;11.57;5.97;;;1.50;99.40;;;;;;5047572;28;19911;-74
2023/02/24 09:03:45;;;;;;;10.13;6.57;;;1.40;99.50;;;;;;5032445;28;20021;-74
2023/02/24 09:06:11;;;;;;;16.20;7.05;;;1.40;99.50;;;;;;5031653;28;20500;-74
2023/02/24 09:08:40;;;;;;;13.98;7.65;;;1.40;99.50;;;;;;5041075;28;20052;-74
2023/02/24 09:11:12;;;;;;;15.95;7.68;;;1.30;99.50;;;;;;5048974;28;20029;-74
2023/02/24 09:13:50;;;;;;;14.88;8.68;;;1.30;99.60;;;;;;5049585;28;20476;-74
2023/02/24 09:16:17;;;;;;;16.00;8.80;;;1.30;99.60;;;;;;5025615;28;20037;-74
2023/02/24 09:18:42;;;;;;;12.85;8.32;;;1.30;99.70;;;;;;5045862;28;20030;-74
2023/02/24 09:21:43;;;;;;;13.55;9.45;;;1.20;99.60;;;;;;5018017;28;20031;-74
2023/02/24 09:24:04;;;;;;;12.48;8.45;;;1.20;99.60;;;;;;5040104;28;20037;-74
2023/02/24 09:26:32;;;;;;;18.20;8.70;;;1.20;99.70;;;;;;5029498;28;20029;-74
2023/02/24 09:28:58;;;;;;;13.57;7.93;;;1.20;99.70;;;;;;5038440;28;20491;-74
2023/02/24 09:31:39;;;;;;;13.77;8.40;;;1.20;99.80;;;;;;5037691;28;20037;-74
2023/02/24 09:34:09;;;;;;;16.90;8.85;;;1.30;99.90;;;;;;5036229;28;20028;-74
2023/02/24 09:36:43;;;;;;;14.52;8.70;;;1.30;99.80;;;;;;5030759;28;20532;-74
2023/02/24 09:39:09;;;;;;;11.93;7.35;;;1.40;99.90;;;;;;5026659;28;20028;-74
2023/02/24 09:42:27;;;;;;;11.40;7.80;;;1.40;99.90;;;;;;5049966;28;20065;-74
2023/02/24 09:44:51;;;;;;;14.60;7.50;;;1.40;99.80;;;;;;5033878;28;20120;-74
2023/02/24 09:47:29;;;;;;;13.30;7.28;;;1.50;99.90;;;;;;5047518;28;20035;-74
2023/02/24 09:49:59;;;;;;;12.73;6.55;;;1.60;99.90;;;;;;5034618;28;20509;-74
2023/02/24 09:52:40;;;;;;;11.93;6.68;;;1.60;99.90;;;;;;5050469;28;20111;-74
2023/02/24 09:55:44;;;;;;;15.73;7.15;;;1.60;99.90;;;;;;5037830;28;20029;-74
2023/02/24 09:58:23;;;;;;;10.20;5.97;;;1.60;99.90;;;;;;5032630;28;20076;-74
2023/02/24 10:01:19;;;;;;;11.63;6.82;;;1.60;99.90;;;;;;5037729;28;20030;-75
2023/02/24 10:04:04;;;;;;;12.88;7.32;;;1.70;99.90;;;;;;5050559;28;20021;-74
2023/02/24 10:06:41;;;;;;;10.77;6.72;;;1.70;99.90;;;;;;5038150;28;20033;-74
2023/02/24 10:09:12;;;;;;;13.85;7.85;;;1.70;99.90;;;;;;5041564;28;20030;-74
2023/02/24 10:11:52;;;;;;;12.82;6.95;;;1.70;99.90;;;;;;5034911;28;20042;-74
2023/02/24 10:14:39;;;;;;;13.15;7.55;;;1.80;99.90;;;;;;5016415;28;20056;-74
2023/02/24 10:17:22;;;;;;;13.88;8.18;;;1.80;99.90;;;;;;5030188;28;20033;-74
2023/02/24 10:20:01;;;;;;;15.02;7.57;;;1.90;99.90;;;;;;5044833;28;20381;-74
2023/02/24 10:22:49;;;;;;;12.43;7.65;;;1.90;99.90;;;;;;5052528;28;20027;-75
2023/02/24 10:25:38;;;;;;;15.98;9.38;;;1.90;99.90;;;;;;5040437;28;20033;-74
2023/02/24 10:28:34;;;;;;;16.02;8.98;;;2.00;99.90;;;;;;5039687;28;20033;-74
2023/02/24 10:31:24;;;;;;;14.05;7.78;;;2.00;99.90;;;;;;5012013;28;20041;-74
2023/02/24 10:34:18;;;;;;;13.70;8.27;;;2.10;99.90;;;;;;5029447;28;20030;-74
2023/02/24 10:36:49;;;;;;;14.48;8.25;;;2.10;99.90;;;;;;5015479;28;20025;-74
2023/02/24 10:39:29;;;;;;;15.63;8.85;;;2.10;99.80;;;;;;5017052;28;20064;-74
2023/02/24 10:42:16;;;;;;;17.60;9.35;;;2.20;99.80;;;;;;5029837;28;20482;-74
2023/02/24 10:44:52;;;;;;;15.98;9.90;;;2.20;99.80;;;;;;5020469;28;20030;-75
2023/02/24 10:47:29;;;;;;;14.35;9.52;;;2.30;99.80;;;;;;5030343;28;20071;-74
2023/02/24 10:49:57;;;;;;;19.77;11.05;;;2.40;99.80;;;;;;5018482;28;20054;-74
2023/02/24 10:55:52;;;;;;;17.95;10.20;;;2.40;99.60;;;;;;5009451;28;20045;-74
2023/02/24 10:58:43;;;;;;;14.95;10.25;;;2.50;99.60;;;;;;5011409;28;20411;-74
2023/02/24 11:01:19;;;;;;;;;;;2.50;99.60;;;;;;5014740;28;20029;-74
2023/02/24 11:04:00;;;;;;;16.33;10.80;;;2.50;99.50;;;;;;5018423;28;20008;-74
2023/02/24 11:09:30;;;;;;;18.20;11.80;;;2.50;99.40;;;;;;5018943;28;20390;-75
2023/02/24 11:17:56;;;;;;;18.23;12.05;;;2.60;99.60;;;;;;5006393;28;20153;-74
2023/02/24 11:20:43;;;;;;;20.27;12.05;;;2.60;99.50;;;;;;5017998;28;20402;-74
2023/02/24 11:23:21;;;;;;;18.98;12.57;;;2.70;99.60;;;;;;5012284;28;20348;-74
2023/02/24 11:26:15;;;;;;;21.23;12.63;;;2.70;99.60;;;;;;5004022;28;20042;-75
2023/02/24 11:29:10;;;;;;;21.25;12.23;;;2.80;99.60;;;;;;5001254;28;20050;-74
2023/02/24 11:32:07;;;;;;;19.40;12.43;;;2.80;99.60;;;;;;5015009;28;20391;-74
2023/02/24 11:35:03;;;;;;;18.67;11.63;;;2.80;99.60;;;;;;5003390;28;20378;-74
2023/02/24 11:37:59;;;;;;;21.58;12.07;;;2.90;99.60;;;;;;5012645;28;20029;-74
2023/02/24 11:40:28;;;;;;;12.93;9.63;;;2.90;99.60;;;;;;5009445;28;20041;-74
2023/02/24 11:43:02;;;;;;;17.67;11.85;;;2.90;99.40;;;;;;5003315;28;20798;-74
2023/02/24 11:45:34;;;;;;;16.65;11.25;;;3.00;99.40;;;;;;5010027;28;20053;-74
2023/02/24 11:48:18;;;;;;;16.02;10.55;;;3.00;99.30;;;;;;5014684;28;20037;-74
2023/02/24 11:51:15;;;;;;;14.10;10.52;;;3.00;99.20;;;;;;5013355;28;20045;-74
2023/02/24 11:54:02;;;;;;;16.35;10.23;;;3.00;99.30;;;;;;4995900;28;20042;-74
2023/02/24 11:56:44;;;;;;;16.30;10.40;;;3.10;99.40;;;;;;5015221;28;20092;-74
2023/02/24 11:59:16;;;;;;;15.20;9.98;;;3.10;99.30;;;;;;5012127;28;20037;-74
2023/02/24 12:02:09;;;;;;;15.98;10.40;;;3.10;99.30;;;;;;5014126;28;20034;-74
2023/02/24 12:04:54;;;;;;;18.63;10.20;;;3.10;99.30;;;;;;4992246;28;20091;-74
2023/02/24 12:08:04;;;;;;;16.17;9.35;;;3.10;99.30;;;;;;4990741;28;20061;-74
2023/02/24 12:10:31;;;;;;;13.00;8.90;;;3.10;99.20;;;;;;5016953;28;20431;-74
2023/02/24 12:13:06;;;;;;;17.73;9.57;;;3.10;99.20;;;;;;5017547;28;20034;-74
2023/02/24 12:15:39;;;;;;;15.85;9.18;;;3.10;99.40;;;;;;5012231;28;20057;-74
2023/02/24 12:18:24;;;;;;;14.00;10.13;;;3.10;99.40;;;;;;5012548;28;20040;-74
2023/02/24 12:20:59;;;;;;;17.60;11.77;;;3.10;99.40;;;;;;5012901;28;20041;-74
2023/02/24 12:23:43;;;;;;;15.68;10.55;;;3.20;99.50;;;;;;4985044;28;20065;-74
2023/02/24 12:26:17;;;;;;;16.60;11.32;;;3.30;99.50;;;;;;5016980;28;20036;-74
2023/02/24 12:28:45;;;;;;;16.50;11.02;;;3.30;99.60;;;;;;5017900;28;20123;-74
2023/02/24 12:31:52;;;;;;;18.75;12.95;;;3.40;99.50;;;;;;5028733;28;20619;-74
2023/02/24 12:34:42;;;;;;;15.90;9.82;;;3.30;99.50;;;;;;5023296;28;20382;-74
2023/02/24 12:37:26;;;;;;;15.82;10.68;;;3.30;99.30;;;;;;5001173;28;20121;-74
2023/02/24 12:40:17;;;;;;;18.05;10.90;;;3.50;99.40;;;;;;5026885;28;20043;-74
2023/02/24 12:42:55;;;;;;;20.67;10.52;;;3.50;99.30;;;;;;5030595;28;20697;-74
2023/02/24 12:45:43;;;;;;;16.17;10.98;;;3.50;99.30;;;;;;5027876;28;20025;-74
2023/02/24 12:48:25;;;;;;;15.73;10.80;;;3.50;99.30;;;;;;5034834;28;20538;-74
2023/02/24 12:51:09;;;;;;;15.18;9.32;;;3.50;99.30;;;;;;5030351;28;20858;-74
2023/02/24 12:53:35;;;;;;;17.15;11.88;;;3.50;99.30;;;;;;5039586;28;20029;-74
2023/02/24 12:56:18;;;;;;;19.17;11.15;;;3.50;99.50;;;;;;5007667;28;20036;-74
2023/02/24 12:58:47;;;;;;;18.88;11.57;;;3.50;99.50;;;;;;5028790;28;20447;-74
2023/02/24 13:01:23;;;;;;;20.33;11.38;;;3.50;99.60;;;;;;5026413;28;20044;-74
2023/02/24 13:04:10;;;;;;;16.75;11.30;;;3.50;99.70;;;;;;5030301;28;20080;-75
2023/02/24 13:06:59;;;;;;;16.77;10.80;;;3.50;99.70;;;;;;5029694;28;20030;-74
2023/02/24 13:09:42;;;;;;;15.45;11.10;;;3.60;99.70;;;;;;5004647;28;20073;-74
2023/02/24 13:12:35;;;;;;;15.18;9.77;;;3.80;99.80;;;;;;5036448;28;20125;-74
2023/02/24 13:15:06;;;;;;;17.88;11.13;;;3.80;99.80;;;;;;5026784;28;20115;-74
2023/02/24 13:17:31;;;;;;;15.05;10.50;;;3.90;99.70;;;;;;5035984;28;20086;-74
2023/02/24 13:20:10;;;;;;;16.92;10.82;;;4.00;99.70;;;;;;5026625;28;20649;-74
2023/02/24 13:22:40;;;;;;;15.05;10.20;;;3.90;99.50;;;;;;5018484;28;20072;-74
2023/02/24 13:25:06;;;;;;;17.17;10.68;;;4.00;99.50;;;;;;5028799;28;20133;-75
2023/02/24 13:27:35;;;;;;;20.50;10.95;;;4.10;99.60;;;;;;5032375;28;20075;-74
2023/02/24 13:30:06;;;;;;;18.85;11.68;;;4.10;99.50;;;;;;5002397;28;20716;-74
2023/02/24 13:32:33;;;;;;;16.20;11.43;;;4.10;99.50;;;;;;5008276;28;20072;-74
2023/02/24 13:35:28;;;;;;;19.20;11.98;;;4.20;99.40;;;;;;4997336;28;20033;-74
2023/02/24 13:37:53;;;;;;;19.10;10.77;;;4.30;99.30;;;;;;4999950;28;20092;-74
2023/02/24 13:40:21;;;;;;;17.85;9.60;;;4.40;99.30;;;;;;5006840;28;20037;-74
2023/02/24 13:42:56;;;;;;;14.15;9.23;;;4.40;99.10;;;;;;5000586;28;20513;-74
2023/02/24 13:45:26;;;;;;;17.58;10.70;;;4.30;99.00;;;;;;5008484;28;20084;-75
2023/02/24 13:48:17;;;;;;;15.05;9.70;;;4.40;99.10;;;;;;5012128;28;20112;-74
2023/02/24 13:51:10;;;;;;;15.43;9.30;;;4.40;99.20;;;;;;5017539;28;20490;-74